createdAt,value
2019-02-23T00:00:05.371Z,21.15
2019-02-23T00:04:09.866Z,20.52
2019-02-23T00:08:14.431Z,20.00
2019-02-23T00:12:18.998Z,19.35
2019-02-23T00:16:23.545Z,19.42
2019-02-23T00:20:28.162Z,19.92
2019-02-23T00:24:32.667Z,18.50
2019-02-23T00:28:37.229Z,17.73
2019-02-23T00:32:41.796Z,17.70
2019-02-23T00:36:46.340Z,16.95
2019-02-23T00:40:50.855Z,17.17
2019-02-23T00:44:55.435Z,16.52
2019-02-23T00:48:59.990Z,16.75
2019-02-23T00:53:05.504Z,16.95
2019-02-23T00:57:10.059Z,16.62
2019-02-23T01:01:14.582Z,17.32
2019-02-23T01:05:19.135Z,17.00
2019-02-23T01:09:23.728Z,17.60
2019-02-23T01:13:28.324Z,18.17
2019-02-23T01:17:32.855Z,17.57
2019-02-23T01:21:37.469Z,17.35
2019-02-23T01:25:42.031Z,17.60
2019-02-23T01:29:46.595Z,16.82
2019-02-23T01:33:51.139Z,16.70
2019-02-23T01:37:55.715Z,11.33
2019-02-23T01:42:00.247Z,11.40
2019-02-23T01:46:04.803Z,10.93
2019-02-23T01:50:09.733Z,11.23
2019-02-23T01:54:14.283Z,10.53
2019-02-23T01:58:18.798Z,14.07
2019-02-23T02:02:23.381Z,13.53
2019-02-23T02:06:28.023Z,12.37
2019-02-23T02:10:32.715Z,10.27
2019-02-23T02:18:04.177Z,8.60
2019-02-23T02:23:37.748Z,9.03
2019-02-23T02:33:23.166Z,8.73
2019-02-23T02:40:53.479Z,8.60
2019-02-23T02:46:30.199Z,8.30
2019-02-23T02:50:34.740Z,8.60
2019-02-23T02:54:39.264Z,8.80
2019-02-23T02:58:43.814Z,8.50
2019-02-23T03:02:48.379Z,7.97
2019-02-23T03:09:00.836Z,8.40
2019-02-23T03:18:41.943Z,8.13
2019-02-23T03:24:43.155Z,9.17
2019-02-23T03:34:17.737Z,7.97
2019-02-23T03:41:29.212Z,8.60
2019-02-23T03:45:33.716Z,8.23
2019-02-23T03:51:32.316Z,7.27
2019-02-23T03:55:37.659Z,7.53
2019-02-23T04:00:04.231Z,6.93
2019-02-23T04:05:05.233Z,7.47
2019-02-23T04:09:09.827Z,7.23
2019-02-23T04:13:14.375Z,8.67
2019-02-23T04:19:07.267Z,8.13
2019-02-23T04:24:57.235Z,8.00
2019-02-23T04:29:01.876Z,8.97
2019-02-23T04:33:06.416Z,8.17
2019-02-23T04:41:35.631Z,9.97
2019-02-23T04:45:40.175Z,11.10
2019-02-23T04:49:52.760Z,11.57
2019-02-23T04:53:57.312Z,11.17
2019-02-23T04:58:01.835Z,11.23
2019-02-23T05:04:26.209Z,10.30
2019-02-23T05:08:30.843Z,11.40
2019-02-23T05:12:35.357Z,11.40
2019-02-23T05:17:55.730Z,11.43
2019-02-23T05:22:00.277Z,12.30
2019-02-23T05:27:45.326Z,12.83
2019-02-23T05:38:29.910Z,13.77
2019-02-23T05:46:26.297Z,18.67
2019-02-23T05:50:30.833Z,19.50
2019-02-23T05:54:35.384Z,19.30
2019-02-23T05:58:39.912Z,15.60
2019-02-23T06:02:45.286Z,15.70
2019-02-23T06:09:36.410Z,14.20
2019-02-23T06:16:41.015Z,14.97
2019-02-23T06:20:45.576Z,18.80
2019-02-23T06:24:50.147Z,15.40
2019-02-23T06:28:54.653Z,14.57
2019-02-23T06:38:27.709Z,15.53
2019-02-23T06:44:32.559Z,14.67
2019-02-23T06:54:47.761Z,14.67
2019-02-23T06:58:52.307Z,15.30
2019-02-23T07:07:01.057Z,15.00
2019-02-23T07:17:33.776Z,14.70
2019-02-23T07:23:09.761Z,15.27
2019-02-23T07:27:14.305Z,16.40
2019-02-23T07:33:12.951Z,16.10
2019-02-23T07:46:31.449Z,16.60
2019-02-23T07:52:41.031Z,15.87
2019-02-23T07:56:45.607Z,14.93
2019-02-23T08:02:26.122Z,15.37
2019-02-23T08:09:16.845Z,14.93
2019-02-23T08:18:05.505Z,15.13
2019-02-23T08:22:10.023Z,14.83
2019-02-23T08:29:26.120Z,16.10
2019-02-23T08:33:30.810Z,16.17
2019-02-23T08:37:35.387Z,16.87
2019-02-23T08:41:39.904Z,16.10
2019-02-23T08:48:27.029Z,15.37
2019-02-23T08:52:31.544Z,14.23
2019-02-23T09:02:27.050Z,14.67
2019-02-23T09:06:31.932Z,15.50
2019-02-23T09:16:27.002Z,15.07
2019-02-23T09:22:21.311Z,15.87
2019-02-23T09:26:25.853Z,16.43
2019-02-23T09:30:41.419Z,15.70
2019-02-23T09:34:46.000Z,15.90
2019-02-23T09:42:07.470Z,16.33
2019-02-23T09:46:09.342Z,16.13
2019-02-23T09:51:18.550Z,15.27
2019-02-23T09:55:23.103Z,15.33
2019-02-23T09:59:27.665Z,15.20
2019-02-23T10:03:32.184Z,15.60
2019-02-23T10:07:36.784Z,15.23
2019-02-23T10:11:41.336Z,16.67
2019-02-23T10:17:46.038Z,14.33
2019-02-23T10:21:50.584Z,14.77
2019-02-23T10:25:55.128Z,14.40
2019-02-23T10:29:59.687Z,16.63
2019-02-23T10:34:04.215Z,16.83
2019-02-23T10:38:08.787Z,14.90
2019-02-23T10:42:13.354Z,16.00
2019-02-23T10:46:17.904Z,14.33
2019-02-23T10:50:22.463Z,14.40
2019-02-23T10:54:27.032Z,15.83
2019-02-23T10:58:31.558Z,15.27
2019-02-23T11:02:36.117Z,14.87
2019-02-23T11:06:40.716Z,14.23
2019-02-23T11:10:45.317Z,12.80
2019-02-23T11:14:49.839Z,14.60
2019-02-23T11:18:54.370Z,14.50
2019-02-23T11:22:58.941Z,15.17
2019-02-23T11:27:03.507Z,14.83
2019-02-23T11:31:08.083Z,12.37
2019-02-23T11:35:12.824Z,14.17
2019-02-23T11:39:17.373Z,12.73
2019-02-23T11:43:21.949Z,12.77
2019-02-23T11:47:26.507Z,15.00
2019-02-23T11:51:31.063Z,13.93
2019-02-23T11:55:35.636Z,17.70
2019-02-23T11:59:40.160Z,17.27
2019-02-23T12:03:44.860Z,17.10
2019-02-23T12:07:49.480Z,16.73
2019-02-23T12:11:54.073Z,16.05
2019-02-23T12:15:58.716Z,15.10
2019-02-23T12:20:03.284Z,15.05
2019-02-23T12:24:07.843Z,14.47
2019-02-23T12:28:12.413Z,14.10
2019-02-23T12:32:17.000Z,13.68
2019-02-23T12:36:21.821Z,13.20
2019-02-23T12:40:26.351Z,12.43
2019-02-23T12:44:30.905Z,17.87
2019-02-23T12:48:35.480Z,18.32
2019-02-23T12:52:40.064Z,18.37
2019-02-23T12:56:44.632Z,17.90
2019-02-23T13:00:49.147Z,18.97
2019-02-23T13:04:53.807Z,19.35
2019-02-23T13:09:15.911Z,17.95
2019-02-23T13:14:04.652Z,17.77
2019-02-23T13:19:02.334Z,16.62
2019-02-23T13:23:37.243Z,15.10
2019-02-23T13:28:15.971Z,15.10
2019-02-23T13:33:09.401Z,14.83
2019-02-23T13:37:57.284Z,14.10
2019-02-23T13:42:12.684Z,14.07
2019-02-23T13:47:01.055Z,14.28
2019-02-23T13:51:53.762Z,13.75
2019-02-23T13:56:42.575Z,13.83
2019-02-23T14:01:46.471Z,15.48
2019-02-23T14:06:44.177Z,17.67
2019-02-23T14:12:32.729Z,17.25
2019-02-23T14:17:06.156Z,18.07
2019-02-23T14:21:47.581Z,16.35
2019-02-23T14:26:43.889Z,14.33
2019-02-23T14:31:20.289Z,12.57
2019-02-23T14:36:02.976Z,12.67
2019-02-23T14:40:57.617Z,12.90
2019-02-23T14:45:32.256Z,12.30
2019-02-23T14:50:05.353Z,11.67
2019-02-23T14:54:19.181Z,11.47
2019-02-23T14:58:59.644Z,11.33
2019-02-23T15:03:44.342Z,10.83
2019-02-23T15:08:12.455Z,10.40
2019-02-23T15:13:07.446Z,10.40
2019-02-23T15:17:48.753Z,10.33
2019-02-23T15:22:26.612Z,10.00
2019-02-23T15:27:21.132Z,10.60
2019-02-23T15:32:06.620Z,11.40
2019-02-23T15:37:06.991Z,10.40
2019-02-23T15:41:51.338Z,11.20
2019-02-23T15:46:43.035Z,10.78
2019-02-23T15:50:47.543Z,11.03
2019-02-23T15:54:52.119Z,10.63
2019-02-23T15:58:56.694Z,10.63
2019-02-23T16:03:01.346Z,11.05
2019-02-23T16:07:05.904Z,9.20
2019-02-23T16:11:10.579Z,9.30
2019-02-23T16:15:15.091Z,8.78
2019-02-23T16:19:19.639Z,8.08
2019-02-23T16:23:35.007Z,8.35
2019-02-23T16:27:30.521Z,8.05
2019-02-23T16:31:35.082Z,7.97
2019-02-23T16:35:40.771Z,8.38
2019-02-23T16:39:45.362Z,9.05
2019-02-23T16:43:49.934Z,8.70
2019-02-23T16:47:54.557Z,7.92
2019-02-23T16:51:59.107Z,8.48
2019-02-23T16:56:03.619Z,8.58
2019-02-23T17:00:08.613Z,9.18
2019-02-23T17:04:13.159Z,9.83
2019-02-23T17:08:17.772Z,10.50
2019-02-23T17:12:22.295Z,10.82
2019-02-23T17:16:26.831Z,9.33
2019-02-23T18:25:27.015Z,11.27
2019-02-23T18:29:31.559Z,11.93
2019-02-23T18:33:36.504Z,11.40
2019-02-23T18:37:41.009Z,11.23
2019-02-23T18:41:45.564Z,10.67
2019-02-23T18:45:50.113Z,10.77
2019-02-23T18:49:54.679Z,10.90
2019-02-23T18:53:59.231Z,10.33
2019-02-23T18:58:03.778Z,10.70
2019-02-23T19:02:08.307Z,11.63
2019-02-23T19:06:12.853Z,10.47
2019-02-23T19:10:17.448Z,11.50
2019-02-23T19:14:21.996Z,11.03
2019-02-23T19:18:26.570Z,10.40
2019-02-23T19:22:31.084Z,11.77
2019-02-23T19:26:38.275Z,10.53
2019-02-23T19:30:41.867Z,10.60
2019-02-23T19:34:46.429Z,11.30
2019-02-23T19:38:50.971Z,11.30
2019-02-23T19:42:57.101Z,10.60
2019-02-23T19:47:06.843Z,11.10
2019-02-23T19:51:11.514Z,13.35
2019-02-23T19:55:16.936Z,14.05
2019-02-23T19:59:21.499Z,11.00
2019-02-23T20:03:26.018Z,11.47
2019-02-23T20:07:30.638Z,11.40
2019-02-23T20:11:35.220Z,10.90
2019-02-23T20:15:39.768Z,9.73
2019-02-23T20:19:44.343Z,11.40
2019-02-23T20:27:32.539Z,11.20
2019-02-23T20:31:37.083Z,10.93
2019-02-23T20:35:51.223Z,10.07
2019-02-23T20:39:55.720Z,10.73
2019-02-23T20:44:00.251Z,11.37
2019-02-23T20:48:04.786Z,10.50
2019-02-23T20:52:09.340Z,11.20
2019-02-23T20:57:51.082Z,10.97
2019-02-23T21:01:55.625Z,9.97
2019-02-23T21:06:00.207Z,11.50
2019-02-23T21:10:05.223Z,10.10
2019-02-23T21:14:09.767Z,11.10
2019-02-23T21:18:14.374Z,11.27
2019-02-23T21:22:19.426Z,11.87
2019-02-23T21:29:46.435Z,11.30
2019-02-23T21:33:51.015Z,11.20
2019-02-23T21:37:55.584Z,12.67
2019-02-23T21:42:00.142Z,12.97
2019-02-23T21:46:04.714Z,13.97
2019-02-23T21:50:09.369Z,12.70
2019-02-23T21:54:13.908Z,12.17
2019-02-23T21:58:18.451Z,13.10
2019-02-23T22:08:11.438Z,13.23
2019-02-23T22:19:09.533Z,13.23
2019-02-23T22:23:14.087Z,12.30
2019-02-23T22:27:18.583Z,12.43
2019-02-23T22:31:23.137Z,12.13
2019-02-23T22:35:27.673Z,13.53
2019-02-23T22:39:32.223Z,13.07
2019-02-23T22:45:45.240Z,11.77
2019-02-23T22:49:49.792Z,13.77
2019-02-23T22:53:54.355Z,13.47
2019-02-23T22:57:58.887Z,11.40
2019-02-23T23:02:20.988Z,10.63
2019-02-23T23:07:07.023Z,12.37
2019-02-23T23:11:22.458Z,12.47
2019-02-23T23:15:26.996Z,12.43
2019-02-23T23:19:44.935Z,13.17
2019-02-23T23:23:49.448Z,12.63
2019-02-23T23:34:18.399Z,13.87
2019-02-23T23:43:57.537Z,14.73
2019-02-23T23:48:02.076Z,13.20
2019-02-23T23:55:23.775Z,14.37
